CheckWX is a tool to help pilots better visualize weather data.  It is not intended as a substitute for an official pre-flight weather briefing.

10:11:30 UTC

KFSW METAR
Fort Madison Municipal Airport
Fort Madison, Iowa, USA
Current

17 mins ago

KFSW 120955Z AUTO 26003KT 10SM 18/18 A2989 RMK AO2
Observed
Jul-12 @ 09:55 UTC
Wind
  • 260° at 3 KTS
Visibility
10 SM
Cloud Levels
Temperature
18°C / 64°F
Dewpoint
18°C / 64°F
Humidity
100%
Altimeter
29.89" Hg
Pressure
1012.22 hPa
Previous

37 mins ago

KFSW 120935Z AUTO 29003KT 10SM 18/18 A2989 RMK AO2
Observed
Jul-12 @ 09:35 UTC
Wind
  • 290° at 3 KTS
Visibility
10 SM
Cloud Levels
Temperature
18°C / 64°F
Dewpoint
18°C / 64°F
Humidity
100%
Altimeter
29.89" Hg
Pressure
1012.22 hPa
Previous

57 mins ago

KFSW 120915Z AUTO 00000KT 10SM 18/18 A2989 RMK AO2
Observed
Jul-12 @ 09:15 UTC
Visibility
10 SM
Cloud Levels
Temperature
18°C / 64°F
Dewpoint
18°C / 64°F
Humidity
100%
Altimeter
29.89" Hg
Pressure
1012.22 hPa